Time;durP1;ratioP1;P1;durP2;ratioP2;P2;SDS_P1;SDS_P2;PMS_P1;PMS_P2;Temp;Humidity;BMP_temperature;BMP_pressure;BME280_temperature;BME280_humidity;BME280_pressure;Samples;Min_cycle;Max_cycle;Signal;HPM_P1;HPM_P2
2023/05/26 00:02:25;;;;;;;25.88;3.38;;;16.60;79.40;;;;;;4957696;29;20111;-67
2023/05/26 00:04:52;;;;;;;40.58;4.65;;;16.60;78.60;;;;;;4957582;29;20027;-67
2023/05/26 00:07:19;;;;;;;21.80;3.30;;;16.60;79.60;;;;;;4957302;28;20504;-68
2023/05/26 00:09:47;;;;;;;28.02;3.70;;;16.60;80.10;;;;;;4957533;29;20035;-68
2023/05/26 00:12:14;;;;;;;22.05;3.28;;;16.50;80.10;;;;;;4957654;29;20031;-67
2023/05/26 00:14:42;;;;;;;22.08;3.00;;;16.40;81.00;;;;;;4940192;29;20047;-68
2023/05/26 00:17:09;;;;;;;28.30;3.90;;;16.30;79.90;;;;;;4957386;29;20070;-67
2023/05/26 00:19:37;;;;;;;18.10;3.00;;;16.30;79.80;;;;;;4957086;28;20537;-68
2023/05/26 00:22:05;;;;;;;20.88;3.22;;;16.20;79.50;;;;;;4957112;29;20063;-67
2023/05/26 00:24:33;;;;;;;20.80;2.72;;;16.20;79.20;;;;;;4940191;29;20050;-67
2023/05/26 00:27:00;;;;;;;10.27;2.55;;;16.30;79.50;;;;;;4954728;28;20671;-67
2023/05/26 00:29:27;;;;;;;16.67;3.63;;;16.30;79.80;;;;;;4956107;28;20042;-67
2023/05/26 00:31:55;;;;;;;19.52;3.33;;;16.30;80.10;;;;;;4960447;28;20030;-68
2023/05/26 00:34:22;;;;;;;23.17;2.92;;;16.40;79.80;;;;;;4956948;28;20081;-68
2023/05/26 00:36:49;;;;;;;21.17;3.45;;;16.40;79.60;;;;;;4956382;28;20131;-68
2023/05/26 00:39:17;;;;;;;20.13;2.90;;;16.40;79.30;;;;;;4956788;28;20110;-68
2023/05/26 00:41:44;;;;;;;18.20;2.92;;;16.40;78.80;;;;;;4956763;28;20054;-67
2023/05/26 00:44:12;;;;;;;23.23;3.78;;;16.30;79.20;;;;;;4956024;28;20031;-68
2023/05/26 00:46:40;;;;;;;15.50;2.70;;;16.30;78.70;;;;;;4958591;28;20075;-68
2023/05/26 00:49:07;;;;;;;15.10;2.70;;;16.30;78.70;;;;;;4953505;28;20039;-67
2023/05/26 00:51:35;;;;;;;19.73;3.47;;;16.30;78.00;;;;;;4955413;28;20035;-68
2023/05/26 00:54:03;;;;;;;15.23;2.60;;;16.30;77.40;;;;;;4938345;29;20393;-67
2023/05/26 00:56:31;;;;;;;26.17;3.75;;;16.20;77.20;;;;;;4938239;29;20054;-67
2023/05/26 00:59:01;;;;;;;20.67;3.20;;;16.20;77.00;;;;;;4970074;28;20039;-67
2023/05/26 01:01:29;;;;;;;14.50;3.00;;;16.10;77.50;;;;;;4969440;28;20426;-69
2023/05/26 01:03:56;;;;;;;28.38;2.92;;;16.00;78.10;;;;;;4956490;28;20035;-68
2023/05/26 01:06:24;;;;;;;16.00;3.17;;;15.90;77.70;;;;;;4956120;28;20035;-68
2023/05/26 01:08:52;;;;;;;17.77;3.28;;;15.90;78.00;;;;;;4957307;28;20042;-67
2023/05/26 01:11:20;;;;;;;17.58;3.00;;;15.80;79.10;;;;;;4958207;28;20028;-67
2023/05/26 01:13:58;;;;;;;13.93;2.55;;;15.80;79.60;;;;;;4955296;28;20394;-67
2023/05/26 01:16:28;;;;;;;15.52;2.65;;;15.90;79.00;;;;;;4927914;28;20405;-66
2023/05/26 01:19:07;;;;;;;13.95;2.45;;;15.90;79.10;;;;;;4923648;29;20095;-67
2023/05/26 01:21:34;;;;;;;13.82;2.58;;;15.80;79.00;;;;;;4937888;28;20046;-65
2023/05/26 01:24:49;;;;;;;18.95;2.95;;;15.90;79.20;;;;;;4953607;29;20076;-67
2023/05/26 01:27:32;;;;;;;16.77;3.00;;;16.00;77.80;;;;;;4901702;29;20045;-68
2023/05/26 01:30:00;;;;;;;23.85;2.80;;;15.90;76.30;;;;;;4936792;29;20036;-67
2023/05/26 01:32:27;;;;;;;16.15;2.63;;;16.00;74.90;;;;;;4921859;29;20386;-68
2023/05/26 01:34:55;;;;;;;15.93;2.67;;;16.00;74.40;;;;;;4939051;29;20493;-67
2023/05/26 01:37:22;;;;;;;15.13;2.97;;;16.00;73.60;;;;;;4938930;28;20042;-67
2023/05/26 01:39:50;;;;;;;15.15;2.97;;;16.10;73.30;;;;;;4923189;29;20031;-68
2023/05/26 01:42:21;;;;;;;13.15;2.28;;;16.10;72.40;;;;;;4938885;29;20027;-67
2023/05/26 01:45:10;;;;;;;13.85;2.60;;;16.10;71.20;;;;;;4938913;29;20051;-68
2023/05/26 01:47:37;;;;;;;14.73;2.40;;;16.20;71.50;;;;;;4939220;28;20091;-67
2023/05/26 01:50:05;;;;;;;9.15;2.38;;;16.20;70.80;;;;;;4938664;29;20043;-67
2023/05/26 01:52:33;;;;;;;9.15;2.20;;;16.30;70.60;;;;;;4938206;29;20047;-67
2023/05/26 01:55:02;;;;;;;12.43;2.65;;;16.30;70.80;;;;;;4955477;29;20031;-67
2023/05/26 01:57:30;;;;;;;32.22;2.72;;;16.40;70.80;;;;;;4922961;28;20035;-67
2023/05/26 01:59:58;;;;;;;17.05;2.17;;;16.40;69.30;;;;;;4938447;29;20110;-67
2023/05/26 02:02:25;;;;;;;50.90;3.83;;;16.40;70.10;;;;;;4955287;29;20106;-68
2023/05/26 02:04:52;;;;;;;26.23;2.95;;;16.50;70.80;;;;;;4955469;29;20637;-68
2023/05/26 02:07:20;;;;;;;20.05;3.33;;;16.50;70.30;;;;;;4955512;28;20046;-66
2023/05/26 02:09:48;;;;;;;56.88;5.57;;;16.50;69.90;;;;;;4938504;29;20047;-68
2023/05/26 02:12:15;;;;;;;26.63;3.60;;;16.50;70.70;;;;;;4955227;29;20453;-67
2023/05/26 02:14:43;;;;;;;30.02;3.67;;;16.50;70.90;;;;;;4954612;28;20047;-68
2023/05/26 02:17:10;;;;;;;24.67;2.85;;;16.40;72.10;;;;;;4954923;29;20121;-67
2023/05/26 02:19:38;;;;;;;18.17;2.88;;;16.20;73.20;;;;;;4955202;28;20486;-70
2023/05/26 11:11:59;;;;;;;10.30;2.67;;;12.70;63.70;;;;;;4948593;28;20066;-67
2023/05/26 11:14:33;;;;;;;10.23;3.13;;;12.70;63.70;;;;;;4951362;29;20498;-67
2023/05/26 11:17:01;;;;;;;9.38;2.97;;;12.70;63.70;;;;;;4951237;28;20067;-67
2023/05/26 11:19:36;;;;;;;9.98;3.05;;;12.60;64.30;;;;;;4951360;28;20039;-67
2023/05/26 11:22:09;;;;;;;6.07;3.15;;;12.60;63.50;;;;;;4950812;29;20043;-67
2023/05/26 11:24:36;;;;;;;11.82;3.00;;;12.60;63.30;;;;;;4943774;28;20086;-67
2023/05/26 11:27:05;;;;;;;12.05;3.08;;;12.60;63.60;;;;;;4926734;29;20462;-69
2023/05/26 11:29:33;;;;;;;8.35;2.90;;;12.50;63.60;;;;;;4950746;28;20043;-67
2023/05/26 11:32:00;;;;;;;10.95;2.88;;;12.50;63.30;;;;;;4948784;28;20039;-67
2023/05/26 11:34:27;;;;;;;9.65;2.92;;;12.50;63.40;;;;;;4951006;29;20071;-66
2023/05/26 11:36:55;;;;;;;7.25;2.67;;;12.50;63.40;;;;;;4951196;28;20051;-67
2023/05/26 11:39:23;;;;;;;8.18;2.80;;;12.50;63.70;;;;;;4949618;28;20090;-66
2023/05/26 11:41:50;;;;;;;7.90;2.63;;;12.50;63.30;;;;;;4951132;29;20035;-67
2023/05/26 11:44:18;;;;;;;8.13;2.63;;;12.50;63.60;;;;;;4951332;29;20120;-70
2023/05/26 11:46:46;;;;;;;9.75;2.20;;;12.40;63.10;;;;;;4933286;28;20039;-69
2023/05/26 11:49:17;;;;;;;16.95;2.40;;;12.40;63.10;;;;;;4953544;28;20042;-67
2023/05/26 11:51:47;;;;;;;;;;;12.40;63.70;;;;;;4922732;28;20043;-68
2023/05/26 11:54:15;;;;;;;13.45;2.55;;;12.30;64.20;;;;;;4954902;29;20384;-66
2023/05/26 11:56:44;;;;;;;11.77;2.83;;;12.30;63.90;;;;;;4954149;28;20145;-68
2023/05/26 11:59:20;;;;;;;9.05;3.05;;;12.20;64.30;;;;;;4954353;28;20046;-67
2023/05/26 12:01:48;;;;;;;9.65;2.72;;;12.20;63.80;;;;;;4955203;28;20046;-69
2023/05/26 12:04:25;;;;;;;6.03;2.20;;;12.20;64.40;;;;;;4918749;29;20565;-69
2023/05/26 12:06:53;;;;;;;7.13;2.38;;;12.20;63.70;;;;;;4934686;29;20071;-69
2023/05/26 12:09:21;;;;;;;6.60;2.10;;;12.20;64.10;;;;;;4946685;28;20039;-69
2023/05/26 12:11:53;;;;;;;6.40;2.00;;;12.20;63.50;;;;;;4937418;29;20055;-70
2023/05/26 12:14:22;;;;;;;7.43;2.20;;;12.20;62.90;;;;;;4938188;29;20049;-70
2023/05/26 12:16:51;;;;;;;8.32;2.17;;;12.20;62.90;;;;;;4956627;28;20509;-67
2023/05/26 12:19:21;;;;;;;6.70;1.65;;;12.20;62.40;;;;;;4942794;28;20031;-68
2023/05/26 12:21:48;;;;;;;;;;;12.20;62.80;;;;;;4953493;28;20047;-67
2023/05/26 12:24:35;;;;;;;5.47;2.13;;;12.20;62.30;;;;;;4954560;29;20277;-67
2023/05/26 12:27:09;;;;;;;6.68;1.95;;;12.20;62.90;;;;;;4925753;29;20051;-68
2023/05/26 12:29:37;;;;;;;5.65;1.73;;;12.20;61.80;;;;;;4941240;28;20047;-69
2023/05/26 12:32:06;;;;;;;6.72;2.13;;;12.20;61.70;;;;;;4953457;28;20062;-69
2023/05/26 12:34:33;;;;;;;6.80;1.85;;;12.20;61.20;;;;;;4921121;28;20076;-69
2023/05/26 12:37:01;;;;;;;7.57;2.20;;;12.10;61.20;;;;;;4954207;29;20047;-69
2023/05/26 12:39:28;;;;;;;5.15;1.83;;;12.10;61.00;;;;;;4936823;29;20032;-69
2023/05/26 12:41:56;;;;;;;5.15;2.08;;;12.10;61.80;;;;;;4953768;28;20065;-70
2023/05/26 12:44:23;;;;;;;6.93;2.17;;;12.10;62.60;;;;;;4953563;28;20031;-69
2023/05/26 12:46:51;;;;;;;8.77;2.38;;;12.00;63.50;;;;;;4954103;28;20381;-69
2023/05/26 12:49:19;;;;;;;7.30;2.13;;;11.90;63.10;;;;;;4936392;28;20129;-69
2023/05/26 12:51:47;;;;;;;7.78;2.65;;;12.00;64.20;;;;;;4935413;28;20525;-70
2023/05/26 12:54:14;;;;;;;7.38;2.30;;;11.90;64.30;;;;;;4953975;29;20153;-69
2023/05/26 12:56:42;;;;;;;7.15;2.42;;;11.90;64.30;;;;;;4952849;28;20057;-71
2023/05/26 12:59:10;;;;;;;9.38;2.47;;;11.80;63.60;;;;;;4954663;28;20028;-69
2023/05/26 13:01:37;;;;;;;7.30;2.90;;;11.80;62.90;;;;;;4954971;28;20502;-69
2023/05/26 13:04:05;;;;;;;5.32;2.00;;;11.80;63.10;;;;;;4954954;28;20114;-69
2023/05/26 13:06:32;;;;;;;7.10;2.28;;;11.80;62.70;;;;;;4956262;29;20676;-69
2023/05/26 14:06:48;;;;;;;3.78;1.90;;;11.40;66.70;;;;;;4945532;28;20058;-69
2023/05/26 14:09:15;;;;;;;4.90;1.95;;;11.30;65.90;;;;;;4955478;28;20043;-69
2023/05/26 14:11:43;;;;;;;6.30;2.08;;;11.40;65.20;;;;;;4953565;28;20382;-69
2023/05/26 14:14:10;;;;;;;6.63;2.00;;;11.40;65.40;;;;;;4954585;28;20462;-69
2023/05/26 14:16:38;;;;;;;7.22;2.15;;;11.40;65.70;;;;;;4955398;29;20035;-69
2023/05/26 14:19:05;;;;;;;4.75;1.83;;;11.40;65.70;;;;;;4955070;28;20109;-69
2023/05/26 14:21:34;;;;;;;6.93;1.80;;;11.40;65.60;;;;;;4953823;28;20075;-69
2023/05/26 14:24:02;;;;;;;7.85;2.35;;;11.40;65.70;;;;;;4937293;28;20397;-69
2023/05/26 14:26:30;;;;;;;6.85;2.30;;;11.30;66.10;;;;;;4936286;29;20094;-69
2023/05/26 14:28:58;;;;;;;5.90;2.00;;;11.40;66.10;;;;;;4936207;29;20032;-69
2023/05/26 14:31:25;;;;;;;4.88;2.33;;;11.40;66.50;;;;;;4939344;28;20043;-69
2023/05/26 14:33:53;;;;;;;3.20;1.60;;;11.30;66.50;;;;;;4957205;28;20027;-69
2023/05/26 14:36:20;;;;;;;6.40;2.03;;;11.30;66.90;;;;;;4956406;28;20054;-69
2023/05/26 14:38:49;;;;;;;5.72;2.13;;;11.30;66.90;;;;;;4971938;28;20486;-69
2023/05/26 14:41:16;;;;;;;9.02;2.13;;;11.30;66.70;;;;;;4953352;28;20048;-70
2023/05/26 14:43:44;;;;;;;8.48;2.05;;;11.30;66.60;;;;;;4954673;29;20039;-69
2023/05/26 14:46:12;;;;;;;4.20;2.15;;;11.30;66.60;;;;;;4954085;28;20437;-69
2023/05/26 14:48:39;;;;;;;4.60;2.10;;;11.30;66.40;;;;;;4938268;29;20023;-69
2023/05/26 14:51:07;;;;;;;5.70;2.35;;;11.30;66.50;;;;;;4954247;28;20058;-69
2023/05/26 14:53:34;;;;;;;5.13;1.73;;;11.20;66.40;;;;;;4941444;28;20125;-69
2023/05/26 14:56:02;;;;;;;8.50;2.40;;;11.20;66.40;;;;;;4954050;28;20050;-69
2023/05/26 14:58:30;;;;;;;5.70;2.20;;;11.20;66.80;;;;;;4954654;28;20046;-69
2023/05/26 15:00:57;;;;;;;3.95;2.08;;;11.20;66.50;;;;;;4953803;28;20733;-69
2023/05/26 15:03:25;;;;;;;5.85;2.13;;;11.20;66.40;;;;;;4954005;28;20516;-69
2023/05/26 15:05:52;;;;;;;6.30;2.35;;;11.10;66.40;;;;;;4953511;28;20060;-69
2023/05/26 15:08:20;;;;;;;7.20;2.20;;;11.10;66.40;;;;;;4953624;28;20039;-69
2023/05/26 15:10:48;;;;;;;3.75;2.03;;;11.10;66.50;;;;;;4938906;28;20425;-69
2023/05/26 15:13:15;;;;;;;6.05;2.10;;;11.10;66.50;;;;;;4934732;29;20063;-69
2023/05/26 15:15:43;;;;;;;3.67;1.98;;;11.10;66.80;;;;;;4947462;28;20080;-69
2023/05/26 15:18:10;;;;;;;8.95;2.15;;;11.00;66.80;;;;;;4954301;28;20027;-69
2023/05/26 15:20:38;;;;;;;4.47;2.00;;;11.00;66.80;;;;;;4936813;28;20031;-69
2023/05/26 15:23:05;;;;;;;5.20;2.08;;;11.00;67.10;;;;;;4936187;29;20389;-69
2023/05/26 15:25:32;;;;;;;4.60;1.60;;;10.90;66.90;;;;;;4958043;28;20042;-69
2023/05/26 15:28:00;;;;;;;6.85;1.92;;;10.90;66.60;;;;;;4973102;28;20367;-69
2023/05/26 15:30:27;;;;;;;3.72;1.85;;;10.90;66.60;;;;;;4973662;28;20042;-69
2023/05/26 15:32:55;;;;;;;3.80;1.80;;;10.90;66.70;;;;;;4953986;28;20036;-69
2023/05/26 15:35:23;;;;;;;4.80;1.83;;;10.90;66.70;;;;;;4953039;28;20055;-69
2023/05/26 15:37:50;;;;;;;5.80;1.35;;;10.90;66.80;;;;;;4954190;28;20039;-69
2023/05/26 15:40:18;;;;;;;4.85;1.80;;;10.90;67.00;;;;;;4954121;29;20039;-69
2023/05/26 15:42:45;;;;;;;4.50;1.80;;;10.90;67.00;;;;;;4953362;28;20039;-69
2023/05/26 15:45:13;;;;;;;4.18;1.80;;;10.90;67.00;;;;;;4952901;28;20055;-70
2023/05/26 15:47:40;;;;;;;4.50;1.58;;;10.80;67.10;;;;;;4953845;28;20086;-69
2023/05/26 15:50:09;;;;;;;5.40;1.80;;;10.80;67.20;;;;;;4937053;29;20414;-69
2023/05/26 15:52:36;;;;;;;6.57;1.90;;;10.80;67.50;;;;;;4953313;28;20525;-69
2023/05/26 15:55:04;;;;;;;3.58;1.75;;;10.80;67.60;;;;;;4953329;28;20035;-69
2023/05/26 15:57:31;;;;;;;3.88;1.65;;;10.80;67.70;;;;;;4936060;28;20813;-69
2023/05/26 15:59:59;;;;;;;4.85;2.03;;;10.80;67.90;;;;;;4959428;28;20046;-69
2023/05/26 16:02:27;;;;;;;3.75;1.40;;;10.70;67.40;;;;;;4956848;28;20047;-69
2023/05/26 16:04:55;;;;;;;5.25;1.60;;;10.70;67.40;;;;;;4953037;28;20170;-69
2023/05/26 16:07:22;;;;;;;3.55;1.50;;;10.70;67.90;;;;;;4953441;28;20047;-69
2023/05/26 16:09:50;;;;;;;5.18;1.70;;;10.70;67.70;;;;;;4953858;29;20046;-69
2023/05/26 16:12:17;;;;;;;7.43;2.00;;;10.70;67.80;;;;;;4936269;29;20517;-69
2023/05/26 16:14:45;;;;;;;6.95;1.70;;;10.70;68.10;;;;;;4953312;28;20043;-69
2023/05/26 16:17:12;;;;;;;5.63;1.58;;;10.70;68.10;;;;;;4953639;29;20081;-69
2023/05/26 16:19:39;;;;;;;3.70;1.70;;;10.70;68.20;;;;;;4953707;28;20068;-69
2023/05/26 16:22:07;;;;;;;4.05;1.70;;;10.70;68.70;;;;;;4934549;29;20074;-69
2023/05/26 16:24:34;;;;;;;3.28;1.60;;;10.70;68.60;;;;;;4964317;28;20110;-69
2023/05/26 16:27:02;;;;;;;3.72;1.75;;;10.60;69.70;;;;;;4953527;29;20032;-69
2023/05/26 16:29:29;;;;;;;3.28;1.75;;;10.60;69.20;;;;;;4953075;28;20074;-69
2023/05/26 16:31:57;;;;;;;7.18;1.58;;;10.60;69.00;;;;;;4952087;28;20114;-69
2023/05/26 16:34:24;;;;;;;5.25;1.50;;;10.60;69.20;;;;;;4954865;28;20040;-69
2023/05/26 16:36:52;;;;;;;3.00;1.50;;;10.60;69.40;;;;;;4956643;29;20051;-69
2023/05/26 16:39:19;;;;;;;2.72;1.77;;;10.50;70.50;;;;;;4959156;28;20036;-69
2023/05/26 16:41:48;;;;;;;5.57;2.10;;;10.50;70.40;;;;;;4956220;28;20040;-69
2023/05/26 16:44:16;;;;;;;4.82;1.60;;;10.40;70.80;;;;;;4941166;29;20350;-69
2023/05/26 16:46:43;;;;;;;5.07;1.80;;;10.40;71.20;;;;;;4956136;28;20035;-69
2023/05/26 16:49:11;;;;;;;3.83;1.70;;;10.40;71.00;;;;;;4957074;28;20039;-69
2023/05/26 16:51:39;;;;;;;6.28;1.83;;;10.40;71.20;;;;;;4956310;28;20039;-69
2023/05/26 16:54:07;;;;;;;10.18;1.85;;;10.40;71.00;;;;;;4940054;29;20046;-69
2023/05/26 16:56:35;;;;;;;6.55;1.92;;;10.30;70.90;;;;;;4955771;28;20569;-69
2023/05/26 16:59:02;;;;;;;4.00;1.90;;;10.30;71.10;;;;;;4955970;28;20031;-69
2023/05/26 17:01:29;;;;;;;4.28;2.05;;;10.30;71.00;;;;;;4954962;28;20051;-69
2023/05/26 17:03:57;;;;;;;6.72;2.28;;;10.20;71.10;;;;;;4956603;29;20115;-69
2023/05/26 17:06:25;;;;;;;3.00;1.83;;;10.20;71.50;;;;;;4955940;28;20436;-69
2023/05/26 17:08:52;;;;;;;4.57;1.70;;;10.20;71.40;;;;;;4955720;28;20122;-69
2023/05/26 17:11:20;;;;;;;3.15;1.80;;;10.20;72.00;;;;;;4956855;29;20031;-69
2023/05/26 17:13:48;;;;;;;7.25;1.85;;;10.20;72.40;;;;;;4956929;28;20122;-69
2023/05/26 17:16:15;;;;;;;3.83;1.80;;;10.20;72.20;;;;;;4955514;28;20393;-69
2023/05/26 17:18:42;;;;;;;4.18;2.20;;;10.10;71.60;;;;;;4955851;28;20118;-69
2023/05/26 17:21:10;;;;;;;2.95;1.80;;;10.10;72.40;;;;;;4956209;28;20118;-69
2023/05/26 17:23:38;;;;;;;7.53;2.10;;;10.10;72.30;;;;;;4956631;28;20052;-69
2023/05/26 17:26:06;;;;;;;2.45;1.55;;;10.10;72.30;;;;;;4938788;29;20074;-69
2023/05/26 17:28:35;;;;;;;4.45;1.75;;;10.00;72.30;;;;;;4940196;28;20030;-68
2023/05/26 17:31:03;;;;;;;5.68;2.05;;;10.00;72.90;;;;;;4956146;29;20130;-69
2023/05/26 17:33:30;;;;;;;4.18;1.65;;;10.00;72.20;;;;;;4956287;29;20114;-68
2023/05/26 17:35:58;;;;;;;3.80;1.73;;;10.00;72.40;;;;;;4956212;28;20043;-69
2023/05/26 17:38:25;;;;;;;7.70;1.75;;;10.00;72.50;;;;;;4955549;28;20059;-69
2023/05/26 17:40:52;;;;;;;6.13;2.03;;;9.90;72.40;;;;;;4966354;28;20499;-69
2023/05/26 17:43:20;;;;;;;6.05;1.85;;;9.90;72.90;;;;;;4975292;28;20059;-69
2023/05/26 17:45:47;;;;;;;4.00;1.70;;;9.90;72.60;;;;;;4974211;28;20038;-69
2023/05/26 17:48:15;;;;;;;3.40;1.63;;;9.90;72.90;;;;;;4957842;28;20043;-69
2023/05/26 17:50:42;;;;;;;6.25;2.10;;;9.90;72.60;;;;;;4955544;28;20035;-69
2023/05/26 17:53:10;;;;;;;4.57;1.75;;;9.90;72.70;;;;;;4955592;28;20059;-69
2023/05/26 17:55:37;;;;;;;4.13;1.70;;;9.90;73.10;;;;;;4955100;28;20058;-69
2023/05/26 17:58:05;;;;;;;5.35;1.50;;;9.90;73.00;;;;;;4954876;28;20058;-69
2023/05/26 18:00:32;;;;;;;5.82;2.05;;;9.90;73.10;;;;;;4955474;29;20039;-69
2023/05/26 18:02:59;;;;;;;3.15;1.70;;;10.00;73.70;;;;;;4955782;29;20027;-69
2023/05/26 18:05:27;;;;;;;4.53;1.75;;;9.90;73.80;;;;;;4955897;28;20034;-68
2023/05/26 18:07:54;;;;;;;7.03;1.67;;;9.90;74.00;;;;;;4955026;28;20047;-69
2023/05/26 18:10:22;;;;;;;8.15;1.58;;;10.00;73.50;;;;;;4973836;28;20034;-68
2023/05/26 18:12:49;;;;;;;3.30;1.60;;;9.90;74.10;;;;;;4975014;28;20063;-69
2023/05/26 18:15:17;;;;;;;5.97;1.70;;;9.90;73.70;;;;;;4974446;28;20042;-69
2023/05/26 18:17:45;;;;;;;4.00;1.50;;;9.90;72.90;;;;;;4971209;28;20461;-69
2023/05/26 18:20:12;;;;;;;6.55;1.50;;;9.90;73.10;;;;;;4955259;29;20075;-69
2023/05/26 18:22:40;;;;;;;7.28;1.77;;;9.90;73.20;;;;;;4954500;28;20051;-69
2023/05/26 18:25:09;;;;;;;4.43;1.67;;;9.80;73.40;;;;;;4955654;29;20027;-69
2023/05/26 18:27:37;;;;;;;4.50;1.60;;;9.80;73.50;;;;;;4954612;28;20047;-69
2023/05/26 18:30:06;;;;;;;5.18;1.80;;;9.80;73.60;;;;;;4955333;28;20146;-68
2023/05/26 18:32:33;;;;;;;3.85;2.03;;;9.80;73.50;;;;;;4954919;28;20044;-69
2023/05/26 18:35:00;;;;;;;3.83;1.70;;;9.80;73.90;;;;;;4969452;28;20062;-68
2023/05/26 18:37:28;;;;;;;8.85;2.17;;;9.80;73.60;;;;;;4954855;28;20039;-69
2023/05/26 18:40:00;;;;;;;4.55;1.83;;;9.70;73.80;;;;;;4962146;28;20110;-69
2023/05/26 18:42:27;;;;;;;2.85;1.77;;;9.70;74.00;;;;;;4955423;28;20048;-69
2023/05/26 18:44:55;;;;;;;2.60;1.50;;;9.70;74.20;;;;;;4954974;29;20031;-70
2023/05/26 18:47:26;;;;;;;5.53;2.00;;;9.70;74.70;;;;;;4954611;28;20039;-69
2023/05/26 18:49:54;;;;;;;5.32;2.00;;;9.70;74.70;;;;;;4961240;28;20034;-67
2023/05/26 18:52:21;;;;;;;6.90;2.20;;;9.70;75.00;;;;;;4954442;28;20250;-68
2023/05/26 18:54:49;;;;;;;7.03;2.10;;;9.70;75.30;;;;;;4971664;28;20043;-67
2023/05/26 18:57:16;;;;;;;5.00;1.80;;;9.50;75.10;;;;;;4951333;28;20523;-67
2023/05/26 18:59:44;;;;;;;4.78;2.05;;;9.50;75.10;;;;;;4936375;28;20486;-67
2023/05/26 19:02:12;;;;;;;6.03;2.20;;;9.50;75.20;;;;;;4950832;28;20043;-67
2023/05/26 19:04:39;;;;;;;7.25;3.20;;;9.60;75.10;;;;;;4946571;29;20043;-68
2023/05/26 19:07:07;;;;;;;4.00;2.15;;;9.60;75.00;;;;;;4931266;29;20056;-68
2023/05/26 19:09:34;;;;;;;3.95;1.77;;;9.60;75.30;;;;;;4931990;29;20118;-68
2023/05/26 19:12:02;;;;;;;4.07;1.92;;;9.50;75.50;;;;;;4952419;28;20086;-69
2023/05/26 19:14:30;;;;;;;3.25;1.98;;;9.50;75.70;;;;;;4951293;28;20126;-69
2023/05/26 19:16:57;;;;;;;8.75;2.47;;;9.50;75.20;;;;;;4952025;28;20536;-68
2023/05/26 19:19:25;;;;;;;2.70;1.70;;;9.40;75.90;;;;;;4964936;28;20046;-68
2023/05/26 19:21:52;;;;;;;3.83;1.77;;;9.40;76.00;;;;;;4954488;28;20043;-68
2023/05/26 19:24:20;;;;;;;5.38;2.20;;;9.40;76.10;;;;;;4951605;29;20039;-68
2023/05/26 19:26:47;;;;;;;7.82;2.20;;;9.40;75.90;;;;;;4934737;29;20063;-68
2023/05/26 19:29:15;;;;;;;3.20;1.88;;;9.40;75.80;;;;;;4950899;28;20482;-68
2023/05/26 19:31:42;;;;;;;4.05;1.95;;;9.40;76.20;;;;;;4935692;28;20450;-68
2023/05/26 19:34:09;;;;;;;5.50;1.83;;;9.30;76.30;;;;;;4950816;28;20110;-68
2023/05/26 19:36:38;;;;;;;3.47;1.83;;;9.30;75.70;;;;;;4951387;29;20047;-68
2023/05/26 19:39:05;;;;;;;5.65;2.20;;;9.20;76.20;;;;;;4950903;28;20061;-66
2023/05/26 19:41:33;;;;;;;4.53;2.08;;;9.20;76.20;;;;;;4950876;28;20130;-68
2023/05/26 20:40:33;;;;;;;7.60;2.15;;;9.10;76.50;;;;;;4958189;28;20414;-66
2023/05/26 20:43:00;;;;;;;2.97;2.00;;;9.10;76.70;;;;;;4938623;29;20055;-66
2023/05/26 20:45:28;;;;;;;4.95;2.25;;;9.10;76.60;;;;;;4950745;28;20047;-66
2023/05/26 20:47:56;;;;;;;3.22;1.98;;;9.10;77.00;;;;;;4954314;29;20039;-67
2023/05/26 20:50:23;;;;;;;2.53;1.63;;;9.10;76.80;;;;;;4944931;28;20050;-65
2023/05/26 20:52:51;;;;;;;7.68;2.22;;;9.10;76.30;;;;;;4949406;28;20046;-68
2023/05/26 20:55:19;;;;;;;6.63;2.08;;;9.10;76.30;;;;;;4952949;28;20438;-67
2023/05/26 20:57:46;;;;;;;4.03;1.98;;;9.10;76.10;;;;;;4953930;28;20090;-67
2023/05/26 21:00:14;;;;;;;3.67;1.95;;;9.10;76.40;;;;;;4936701;29;20028;-68
2023/05/26 21:02:41;;;;;;;5.55;1.90;;;9.10;76.30;;;;;;4951984;28;20039;-67
2023/05/26 21:05:09;;;;;;;6.40;1.92;;;9.10;76.10;;;;;;4937718;29;20091;-67
2023/05/26 21:07:36;;;;;;;3.28;1.50;;;9.10;75.90;;;;;;4953552;28;20067;-68
2023/05/26 21:10:04;;;;;;;9.68;2.10;;;9.20;75.90;;;;;;4936314;28;20035;-68
2023/05/26 21:12:31;;;;;;;3.13;1.70;;;9.20;76.30;;;;;;4913042;29;20066;-68
2023/05/26 21:14:59;;;;;;;4.38;1.70;;;9.20;75.90;;;;;;4935786;29;20349;-68
2023/05/26 21:17:26;;;;;;;3.13;1.83;;;9.20;75.80;;;;;;4959768;28;20102;-68
2023/05/26 21:19:54;;;;;;;2.30;1.50;;;9.20;75.80;;;;;;4972258;28;20038;-67
2023/05/26 21:22:21;;;;;;;4.10;1.73;;;9.20;76.30;;;;;;4962495;28;20492;-66
2023/05/26 21:24:49;;;;;;;3.85;1.83;;;9.20;76.10;;;;;;4952520;28;20170;-69
2023/05/26 21:27:19;;;;;;;3.67;1.70;;;9.20;76.10;;;;;;4953862;29;20043;-67
2023/05/26 21:29:46;;;;;;;3.63;2.00;;;9.20;75.90;;;;;;4952347;28;20517;-68
2023/05/26 21:32:14;;;;;;;2.60;1.80;;;9.20;75.70;;;;;;4952426;28;20042;-68
2023/05/26 21:34:42;;;;;;;3.30;1.67;;;9.30;75.70;;;;;;4960961;28;20035;-68
2023/05/26 21:37:10;;;;;;;7.75;1.70;;;9.20;75.70;;;;;;4971859;28;20278;-68
2023/05/26 21:39:38;;;;;;;4.47;1.70;;;9.30;75.70;;;;;;4951551;28;20467;-68
2023/05/26 21:42:05;;;;;;;4.50;1.92;;;9.30;76.00;;;;;;4942147;28;20516;-68
2023/05/26 21:44:33;;;;;;;4.25;1.90;;;9.30;76.00;;;;;;4957028;28;20166;-67
2023/05/26 21:47:00;;;;;;;4.10;2.10;;;9.40;75.70;;;;;;4953073;29;20553;-69
2023/05/26 21:49:28;;;;;;;5.88;2.03;;;9.40;75.40;;;;;;4955534;28;20046;-68
2023/05/26 21:51:55;;;;;;;6.45;1.98;;;9.40;75.70;;;;;;4952242;28;20067;-67
2023/05/26 21:54:22;;;;;;;6.05;2.70;;;9.50;75.50;;;;;;4952764;29;20031;-67
2023/05/26 21:56:50;;;;;;;6.78;2.20;;;9.50;75.30;;;;;;4952629;29;20170;-67
2023/05/26 21:59:17;;;;;;;7.13;1.80;;;9.50;75.60;;;;;;4952325;28;20529;-67
2023/05/26 22:01:45;;;;;;;4.32;1.75;;;9.60;75.30;;;;;;4951495;28;20050;-68
2023/05/26 22:04:12;;;;;;;7.97;1.80;;;9.60;75.20;;;;;;4951936;28;20126;-69
2023/05/26 22:06:40;;;;;;;5.88;1.90;;;9.70;74.80;;;;;;4954034;28;20434;-68
